createdAt,value
2023-04-01T00:01:27.012Z,75.84
2023-04-01T00:07:16.247Z,76.20
2023-04-01T00:13:50.020Z,76.52
2023-04-01T00:20:53.712Z,76.56
2023-04-01T00:27:26.142Z,77.95
2023-04-01T00:33:35.248Z,77.51
2023-04-01T00:39:56.460Z,77.46
2023-04-01T00:46:34.265Z,77.67
2023-04-01T00:52:53.661Z,77.64
2023-04-01T00:59:24.688Z,77.60
2023-04-01T01:06:12.308Z,77.53
2023-04-01T01:12:37.889Z,77.52
2023-04-01T01:19:37.391Z,77.08
2023-04-01T01:26:32.738Z,77.44
2023-04-01T01:32:53.720Z,77.11
2023-04-01T01:39:44.788Z,76.72
2023-04-01T01:45:08.621Z,76.86
2023-04-01T01:50:39.389Z,76.99
2023-04-01T01:57:01.279Z,76.87
2023-04-01T02:03:37.810Z,76.85
2023-04-01T02:10:01.618Z,77.21
2023-04-01T02:16:53.704Z,77.55
2023-04-01T02:23:11.768Z,77.71
2023-04-01T02:29:58.952Z,77.69
2023-04-01T02:36:43.999Z,77.68
2023-04-01T02:43:18.386Z,77.52
2023-04-01T02:50:08.915Z,77.47
2023-04-01T02:56:56.733Z,77.39
2023-04-01T03:03:46.462Z,77.43
2023-04-01T03:10:32.130Z,77.25
2023-04-01T03:16:41.306Z,77.50
2023-04-01T03:22:31.989Z,77.56
2023-04-01T03:28:58.417Z,77.73
2023-04-01T03:35:06.939Z,77.89
2023-04-01T03:41:31.840Z,78.23
2023-04-01T03:48:03.063Z,78.31
2023-04-01T03:54:07.239Z,78.62
2023-04-01T04:00:16.819Z,78.75
2023-04-01T04:06:26.399Z,78.70
2023-04-01T04:13:12.600Z,78.71
2023-04-01T04:19:03.190Z,78.86
2023-04-01T04:25:28.777Z,78.79
2023-04-01T04:31:24.933Z,78.64
2023-04-01T04:36:55.104Z,78.59
2023-04-01T04:42:10.097Z,78.61
2023-04-01T04:47:31.845Z,78.47
2023-04-01T04:52:47.047Z,78.17
2023-04-01T04:58:02.507Z,77.90
2023-04-01T05:03:08.893Z,77.74
2023-04-01T05:08:37.079Z,77.65
2023-04-01T05:13:46.125Z,77.40
2023-04-01T05:19:00.309Z,77.14
2023-04-01T05:24:44.118Z,76.99
2023-04-01T05:30:02.675Z,76.98
2023-04-01T05:36:49.520Z,76.97
2023-04-01T05:42:39.403Z,76.81
2023-04-01T05:48:53.520Z,76.71
2023-04-01T05:54:38.964Z,76.64
2023-04-01T06:00:24.072Z,76.42
2023-04-01T06:05:50.468Z,76.18
2023-04-01T06:12:09.414Z,75.99
2023-04-01T06:18:44.252Z,75.71
2023-04-01T06:25:03.327Z,75.50
2023-04-01T06:31:58.476Z,75.36
2023-04-01T06:38:17.374Z,75.19
2023-04-01T06:45:18.354Z,75.34
2023-04-01T06:52:36.359Z,75.23
2023-04-01T06:59:03.076Z,75.11
2023-04-01T07:04:46.075Z,75.13
2023-04-01T07:10:11.436Z,75.33
2023-04-01T07:16:40.860Z,75.43
2023-04-01T07:22:39.982Z,75.68
2023-04-01T07:29:15.555Z,75.73
2023-04-01T07:35:55.066Z,75.66
2023-04-01T07:41:36.441Z,75.33
2023-04-01T07:47:31.790Z,74.84
2023-04-01T07:52:53.424Z,74.16
2023-04-01T07:58:21.928Z,73.87
2023-04-01T08:04:45.995Z,73.59
2023-04-01T08:10:24.548Z,72.46
2023-04-01T08:16:36.661Z,71.21
2023-04-01T08:21:46.887Z,70.78
2023-04-01T08:26:53.106Z,70.87
2023-04-01T08:32:10.083Z,71.40
2023-04-01T08:37:53.885Z,71.13
2023-04-01T08:43:35.387Z,70.65
2023-04-01T08:48:51.614Z,70.41
2023-04-01T08:54:18.131Z,70.27
2023-04-01T09:00:11.220Z,69.31
2023-04-01T09:06:06.307Z,69.50
2023-04-01T09:11:59.776Z,69.62
2023-04-01T09:17:47.470Z,69.16
2023-04-01T09:23:29.260Z,68.02
2023-04-01T11:51:00.469Z,76.81
2023-04-01T11:56:32.733Z,77.60
2023-04-01T12:01:44.415Z,77.62
2023-04-01T12:07:00.455Z,77.46
2023-04-01T12:12:25.261Z,77.72
2023-04-01T12:18:09.232Z,78.03
2023-04-01T12:23:11.324Z,75.98
2023-04-01T12:28:42.944Z,76.08
2023-04-01T12:34:03.152Z,78.39
2023-04-01T12:39:20.211Z,74.98
2023-04-01T12:45:04.305Z,71.61
2023-04-01T12:50:18.357Z,74.53
2023-04-01T12:55:44.018Z,74.16
2023-04-01T13:01:02.966Z,73.49
2023-04-01T13:06:45.787Z,72.42
2023-04-01T13:13:11.198Z,75.38
2023-04-01T13:18:33.545Z,73.04
2023-04-01T13:24:10.438Z,74.59
2023-04-01T13:29:47.099Z,74.58
2023-04-01T13:35:01.459Z,73.81
2023-04-01T13:41:02.191Z,75.94
2023-04-01T13:46:51.691Z,76.07
2023-04-01T13:52:25.488Z,77.62
2023-04-01T13:57:40.533Z,79.66
2023-04-01T14:02:55.859Z,79.93
2023-04-01T14:08:20.928Z,78.98
2023-04-01T14:13:42.289Z,79.16
2023-04-01T14:19:22.201Z,80.84
2023-04-01T14:24:54.107Z,81.13
2023-04-01T14:30:13.344Z,82.56
2023-04-01T14:35:54.226Z,83.02
2023-04-01T14:41:43.144Z,82.60
2023-04-01T14:47:30.722Z,82.82
2023-04-01T14:52:44.489Z,81.94
2023-04-01T14:58:13.693Z,82.72
2023-04-01T15:04:10.470Z,82.99
2023-04-01T15:09:39.926Z,83.61
2023-04-01T15:15:26.501Z,84.03
2023-04-01T15:20:57.998Z,84.90
2023-04-01T15:26:21.571Z,83.98
2023-04-01T15:31:39.715Z,82.46
2023-04-01T15:37:06.276Z,83.35
2023-04-01T15:42:30.564Z,82.87
2023-04-01T15:47:44.258Z,83.62
2023-04-01T15:53:37.642Z,84.69
2023-04-01T15:59:06.467Z,83.36
2023-04-01T16:04:37.424Z,82.82
2023-04-01T16:09:58.088Z,84.87
2023-04-01T16:15:25.601Z,87.05
2023-04-01T16:21:09.059Z,88.29
2023-04-01T16:26:24.442Z,89.96
2023-04-01T16:31:58.571Z,89.08
2023-04-01T16:37:38.632Z,89.02
2023-04-01T16:43:10.164Z,89.87
2023-04-01T16:48:46.537Z,90.42
2023-04-01T16:54:32.067Z,90.22
2023-04-01T16:59:42.177Z,90.18
2023-04-01T17:05:14.524Z,90.55
2023-04-01T17:11:00.203Z,91.08
2023-04-01T17:16:29.389Z,90.95
2023-04-01T17:22:04.905Z,90.85
2023-04-01T17:27:35.028Z,89.38
2023-04-01T17:33:06.567Z,88.41
2023-04-01T17:38:46.096Z,88.46
2023-04-01T17:44:04.552Z,88.20
2023-04-01T17:49:27.934Z,88.74
2023-04-01T17:55:19.321Z,88.84
2023-04-01T18:00:42.315Z,89.23
2023-04-01T18:06:11.517Z,90.25
2023-04-01T18:11:40.189Z,90.77
2023-04-01T18:17:33.851Z,91.23
2023-04-01T18:22:56.313Z,91.04
2023-04-01T18:28:35.504Z,91.32
2023-04-01T18:34:21.649Z,90.96
2023-04-01T18:39:38.300Z,90.47
2023-04-01T18:45:08.082Z,91.08
2023-04-01T18:50:45.116Z,91.68
2023-04-01T18:55:57.381Z,92.01
2023-04-01T19:01:13.901Z,92.03
2023-04-01T19:06:31.855Z,92.28
2023-04-01T19:12:01.318Z,92.63
2023-04-01T19:17:48.189Z,92.89
2023-04-01T19:23:08.852Z,93.08
2023-04-01T19:28:32.939Z,93.20
2023-04-01T19:34:25.906Z,93.29
2023-04-01T19:39:49.951Z,93.24
2023-04-01T19:45:34.245Z,93.36
2023-04-01T19:51:21.224Z,93.47
2023-04-01T19:56:44.721Z,93.50
2023-04-01T20:02:29.134Z,93.61
2023-04-01T20:07:47.250Z,93.64
2023-04-01T20:13:07.858Z,93.65
2023-04-01T20:18:49.840Z,93.57
2023-04-01T20:24:02.942Z,93.43
2023-04-01T20:30:01.073Z,93.34
2023-04-01T20:35:48.612Z,93.35
2023-04-01T20:41:28.580Z,93.38
2023-04-01T20:46:57.258Z,93.41
2023-04-01T20:52:42.053Z,93.57
2023-04-01T20:58:18.820Z,93.26
2023-04-01T21:03:32.489Z,93.25
2023-04-01T21:09:01.773Z,93.27
2023-04-01T21:14:37.062Z,93.47
2023-04-01T21:20:07.630Z,93.60
2023-04-01T21:25:57.986Z,93.72
2023-04-01T21:31:47.614Z,93.79
2023-04-01T21:37:04.466Z,93.77
2023-04-01T21:42:54.928Z,93.80
2023-04-01T21:48:25.419Z,93.81
2023-04-01T21:54:23.237Z,93.85
2023-04-01T22:00:12.278Z,93.88
2023-04-01T22:05:18.737Z,93.92
2023-04-01T22:10:40.201Z,93.86
2023-04-01T22:16:13.104Z,93.84
2023-04-01T22:21:50.322Z,93.91
2023-04-01T22:27:20.553Z,93.94
2023-04-01T22:33:01.568Z,93.88
2023-04-01T22:38:36.913Z,93.82
2023-04-01T22:43:50.473Z,93.66
2023-04-01T22:49:02.821Z,93.43
2023-04-01T22:54:45.171Z,93.45
2023-04-01T22:59:58.311Z,93.49
2023-04-01T23:05:05.138Z,93.50
2023-04-01T23:10:22.333Z,93.73
2023-04-01T23:15:47.740Z,93.87
2023-04-01T23:21:11.626Z,93.91
2023-04-01T23:26:27.093Z,93.91
2023-04-01T23:31:36.772Z,93.99
2023-04-01T23:36:40.883Z,94.04
2023-04-01T23:42:04.265Z,94.05
2023-04-01T23:47:29.507Z,94.13
2023-04-01T23:52:42.791Z,94.13
2023-04-01T23:58:28.084Z,94.23
